Time;durP1;ratioP1;P1;durP2;ratioP2;P2;SDS_P1;SDS_P2;PMS_P1;PMS_P2;Temp;Humidity;BMP_temperature;BMP_pressure;BME280_temperature;BME280_humidity;BME280_pressure;Samples;Min_cycle;Max_cycle;Signal;HPM_P1;HPM_P2
2023/12/01 00:01:06;;;;;;;;;;;;;;;;;;5090488;28;19959;-75
2023/12/01 00:03:31;;;;;;;;;;;;;;;;;;5090390;28;19908;-76
2023/12/01 00:05:56;;;;;;;;;;;;;;;;;;5091695;28;20406;-76
2023/12/01 00:08:21;;;;;;;;;;;;;;;;;;5091952;28;19931;-76
2023/12/01 00:10:46;;;;;;;;;;;;;;;;;;5094076;28;19908;-76
2023/12/01 00:13:11;;;;;;;;;;;;;;;;;;5095308;28;20385;-76
2023/12/01 00:15:37;;;;;;;;;;;;;;;;;;5095165;28;19908;-76
2023/12/01 00:18:02;;;;;;;;;;;;;;;;;;5095119;28;19998;-76
2023/12/01 00:20:27;;;;;;;;;;;;;;;;;;5095141;28;19914;-76
2023/12/01 00:22:52;;;;;;;;;;;;;;;;;;5095212;28;19914;-76
2023/12/01 00:25:17;;;;;;;;;;;;;;;;;;5093536;28;20292;-76
2023/12/01 00:27:43;;;;;;;;;;;;;;;;;;5094819;28;20418;-75
2023/12/01 00:30:08;;;;;;;;;;;;;;;;;;5093707;28;19957;-76
2023/12/01 00:32:33;;;;;;;;;;;;;;;;;;5094855;28;19912;-76
2023/12/01 00:34:58;;;;;;;;;;;;;;;;;;5093647;28;20389;-76
2023/12/01 00:37:23;;;;;;;;;;;;;;;;;;5094549;28;19916;-76
2023/12/01 00:39:48;;;;;;;;;;;;;;;;;;5094881;28;19914;-75
2023/12/01 00:42:13;;;;;;;;;;;;;;;;;;5094766;28;19919;-75
2023/12/01 00:44:38;;;;;;;;;;;;;;;;;;5094327;28;20378;-75
2023/12/01 00:47:04;;;;;;;;;;;;;;;;;;5094644;28;19995;-76
2023/12/01 00:49:31;;;;;;;;;;;;;;;;;;5094604;28;19908;-76
2023/12/01 00:51:57;;;;;;;;;;;;;;;;;;5093395;28;19908;-76
2023/12/01 00:54:23;;;;;;;;;;;;;;;;;;5094392;28;20338;-76
2023/12/01 00:56:48;;;;;;;;;;;;;;;;;;5086083;28;19915;-76
2023/12/01 00:59:13;;;;;;;;;;;;;;;;;;5094194;28;19912;-75
2023/12/01 01:01:38;;;;;;;;;;;;;;;;;;5094344;28;19931;-75
2023/12/01 01:04:03;;;;;;;;;;;;;;;;;;5094226;28;19912;-75
2023/12/01 01:06:28;;;;;;;;;;;;;;;;;;5094085;28;20396;-75
2023/12/01 01:08:53;;;;;;;;;;;;;;;;;;5094085;28;19912;-75
2023/12/01 01:11:19;;;;;;;;;;;;;;;;;;5084514;28;19909;-75
2023/12/01 01:13:44;;;;;;;;;;;;;;;;;;5093856;28;19954;-76
2023/12/01 01:16:10;;;;;;;;;;;;;;;;;;5094126;28;19908;-76
2023/12/01 01:18:35;;;;;;;;;;;;;;;;;;5092743;28;19955;-76
2023/12/01 01:21:00;;;;;;;;;;;;;;;;;;5094070;28;20351;-76
2023/12/01 01:23:25;;;;;;;;;;;;;;;;;;5093920;28;19914;-76
2023/12/01 01:25:50;;;;;;;;;;;;;;;;;;5093937;28;20360;-76
2023/12/01 01:28:16;;;;;;;;;;;;;;;;;;5093607;28;19961;-76
2023/12/01 01:30:41;;;;;;;;;;;;;;;;;;5092566;28;19908;-76
2023/12/01 01:33:06;;;;;;;;;;;;;;;;;;5093854;28;19914;-76
2023/12/01 01:35:32;;;;;;;;;;;;;;;;;;5093636;28;20297;-76
2023/12/01 01:37:57;;;;;;;;;;;;;;;;;;5092328;28;19908;-76
2023/12/01 01:40:22;;;;;;;;;;;;;;;;;;5093860;28;19912;-76
2023/12/01 01:42:47;;;;;;;;;;;;;;;;;;5083141;28;19912;-76
2023/12/01 01:45:12;;;;;;;;;;;;;;;;;;5074044;28;19924;-76
2023/12/01 01:47:38;;;;;;;;;;;;;;;;;;5081073;28;19995;-76
2023/12/01 01:50:03;;;;;;;;;;;;;;;;;;5074442;28;20267;-76
2023/12/01 01:52:28;;;;;;;;;;;;;;;;;;5090469;28;19914;-76
2023/12/01 01:54:53;;;;;;;;;;;;;;;;;;5089422;28;20007;-76
2023/12/01 01:57:18;;;;;;;;;;;;;;;;;;5075762;28;19908;-76
2023/12/01 01:59:46;;;;;;;;;;;;;;;;;;5093249;28;20322;-76
2023/12/01 02:02:11;;;;;;;;;;;;;;;;;;5091959;28;20288;-75
2023/12/01 02:04:37;;;;;;;;;;;;;;;;;;5092934;28;19963;-76
2023/12/01 02:07:02;;;;;;;;;;;;;;;;;;5093165;28;19912;-76
2023/12/01 02:09:27;;;;;;;;;;;;;;;;;;5091591;28;20006;-76
2023/12/01 02:11:52;;;;;;;;;;;;;;;;;;5093057;28;19912;-76
2023/12/01 02:14:17;;;;;;;;;;;;;;;;;;5091196;28;19909;-76
2023/12/01 02:16:45;;;;;;;;;;;;;;;;;;5082716;28;19912;-76
2023/12/01 02:19:11;;;;;;;;;;;;;;;;;;5081974;28;19991;-76
2023/12/01 02:21:36;;;;;;;;;;;;;;;;;;5091680;28;20015;-76
2023/12/01 02:24:01;;;;;;;;;;;;;;;;;;5091548;28;19991;-76
2023/12/01 02:26:26;;;;;;;;;;;;;;;;;;5089959;28;20397;-76
2023/12/01 02:28:51;;;;;;;;;;;;;;;;;;5085802;28;19915;-75
2023/12/01 02:31:17;;;;;;;;;;;;;;;;;;5092212;28;19912;-76
2023/12/01 02:33:42;;;;;;;;;;;;;;;;;;5084481;28;19912;-76
2023/12/01 02:36:08;;;;;;;;;;;;;;;;;;5092586;28;19977;-76
2023/12/01 02:38:33;;;;;;;;;;;;;;;;;;5092484;28;19995;-76
2023/12/01 02:40:58;;;;;;;;;;;;;;;;;;5091713;28;20003;-75
2023/12/01 02:43:23;;;;;;;;;;;;;;;;;;5092197;28;20340;-76
2023/12/01 02:45:49;;;;;;;;;;;;;;;;;;5092486;28;20377;-76
2023/12/01 02:48:14;;;;;;;;;;;;;;;;;;5091055;28;20385;-76
2023/12/01 02:50:39;;;;;;;;;;;;;;;;;;5092479;28;19915;-76
2023/12/01 02:53:04;;;;;;;;;;;;;;;;;;5092422;28;19909;-76
2023/12/01 02:55:29;;;;;;;;;;;;;;;;;;5092266;28;19908;-76
2023/12/01 02:57:54;;;;;;;;;;;;;;;;;;5092139;28;19933;-76
2023/12/01 03:00:20;;;;;;;;;;;;;;;;;;5092322;28;19915;-76
2023/12/01 03:02:45;;;;;;;;;;;;;;;;;;5090767;28;19908;-76
2023/12/01 03:05:10;;;;;;;;;;;;;;;;;;5090704;28;20003;-76
2023/12/01 03:07:35;;;;;;;;;;;;;;;;;;5092465;28;19908;-75
2023/12/01 03:10:00;;;;;;;;;;;;;;;;;;5090920;28;20281;-76
2023/12/01 03:12:25;;;;;;;;;;;;;;;;;;5092065;28;19930;-76
2023/12/01 03:14:50;;;;;;;;;;;;;;;;;;5092219;28;19908;-76
2023/12/01 03:17:15;;;;;;;;;;;;;;;;;;5092033;28;19931;-76
2023/12/01 03:19:40;;;;;;;;;;;;;;;;;;5090902;28;20599;-76
2023/12/01 03:22:05;;;;;;;;;;;;;;;;;;5090968;28;19962;-76
2023/12/01 03:24:31;;;;;;;;;;;;;;;;;;5090128;28;19916;-76
2023/12/01 03:26:56;;;;;;;;;;;;;;;;;;5091873;28;19920;-76
2023/12/01 03:29:21;;;;;;;;;;;;;;;;;;5092067;28;19908;-75
2023/12/01 03:31:46;;;;;;;;;;;;;;;;;;5090656;28;19908;-76
2023/12/01 03:34:11;;;;;;;;;;;;;;;;;;5091946;28;19912;-76
2023/12/01 03:36:36;;;;;;;;;;;;;;;;;;5091723;28;20387;-75
2023/12/01 03:39:01;;;;;;;;;;;;;;;;;;5091852;28;19909;-75
2023/12/01 03:41:26;;;;;;;;;;;;;;;;;;5091837;28;19976;-76
2023/12/01 03:43:51;;;;;;;;;;;;;;;;;;5093003;28;19912;-76
2023/12/01 03:46:17;;;;;;;;;;;;;;;;;;5095757;28;20015;-76
2023/12/01 03:48:42;;;;;;;;;;;;;;;;;;5095653;28;19916;-75
2023/12/01 03:51:09;;;;;;;;;;;;;;;;;;5095812;28;19915;-76
2023/12/01 03:53:35;;;;;;;;;;;;;;;;;;5094189;28;19915;-76
2023/12/01 03:56:00;;;;;;;;;;;;;;;;;;5095546;28;19908;-76
2023/12/01 03:58:25;;;;;;;;;;;;;;;;;;5085856;28;20259;-77
2023/12/01 04:00:50;;;;;;;;;;;;;;;;;;5082450;28;19909;-77
2023/12/01 04:03:15;;;;;;;;;;;;;;;;;;5083526;28;19909;-77
2023/12/01 04:05:40;;;;;;;;;;;;;;;;;;5087007;28;19959;-77
2023/12/01 04:08:05;;;;;;;;;;;;;;;;;;5095348;28;19936;-77
2023/12/01 04:10:30;;;;;;;;;;;;;;;;;;5083605;28;19994;-77
2023/12/01 04:12:55;;;;;;;;;;;;;;;;;;5087771;28;20002;-77
2023/12/01 04:15:24;;;;;;;;;;;;;;;;;;5093878;28;20350;-77
2023/12/01 04:17:49;;;;;;;;;;;;;;;;;;5080756;28;19915;-77
2023/12/01 04:20:28;;;;;;;;;;;;;;;;;;5075100;28;19909;-77
2023/12/01 04:22:53;;;;;;;;;;;;;;;;;;5087312;28;20000;-78
2023/12/01 04:25:18;;;;;;;;;;;;;;;;;;5082015;28;19986;-76
2023/12/01 04:27:43;;;;;;;;;;;;;;;;;;5083396;28;19909;-75
2023/12/01 04:30:14;;;;;;;;;;;;;;;;;;5075119;28;19909;-76
2023/12/01 04:32:39;;;;;;;;;;;;;;;;;;5085497;28;20273;-76
2023/12/01 04:35:04;;;;;;;;;;;;;;;;;;5086497;28;20500;-76
2023/12/01 04:37:31;;;;;;;;;;;;;;;;;;5086328;28;19913;-76
2023/12/01 04:39:56;;;;;;;;;;;;;;;;;;5086612;28;19909;-76
2023/12/01 04:42:21;;;;;;;;;;;;;;;;;;5085687;28;19908;-77
2023/12/01 04:44:46;;;;;;;;;;;;;;;;;;5086778;28;19920;-77
2023/12/01 04:47:11;;;;;;;;;;;;;;;;;;5094647;28;19927;-77
2023/12/01 04:49:36;;;;;;;;;;;;;;;;;;5094618;28;19973;-77
2023/12/01 04:52:01;;;;;;;;;;;;;;;;;;5094670;28;19953;-76
2023/12/01 04:54:29;;;;;;;;;;;;;;;;;;5084013;28;19912;-77
2023/12/01 04:56:54;;;;;;;;;;;;;;;;;;5085856;28;19908;-76
2023/12/01 04:59:19;;;;;;;;;;;;;;;;;;5093495;28;20037;-76
2023/12/01 05:01:44;;;;;;;;;;;;;;;;;;5086284;28;19961;-76
2023/12/01 05:04:09;;;;;;;;;;;;;;;;;;5094278;28;19954;-76
2023/12/01 05:06:35;;;;;;;;;;;;;;;;;;5085818;28;19912;-77
2023/12/01 05:09:00;;;;;;;;;;;;;;;;;;5094147;28;19934;-76
2023/12/01 05:11:25;;;;;;;;;;;;;;;;;;5076044;28;19916;-77
2023/12/01 05:13:50;;;;;;;;;;;;;;;;;;5089264;28;19947;-76
2023/12/01 05:16:16;;;;;;;;;;;;;;;;;;5082205;28;20346;-76
2023/12/01 05:18:41;;;;;;;;;;;;;;;;;;5077457;28;19995;-76
2023/12/01 05:21:08;;;;;;;;;;;;;;;;;;5085685;28;19908;-77
2023/12/01 05:23:34;;;;;;;;;;;;;;;;;;5081766;28;20347;-76
2023/12/01 05:25:59;;;;;;;;;;;;;;;;;;5079620;28;19916;-76
2023/12/01 05:28:25;;;;;;;;;;;;;;;;;;5092655;28;19908;-76
2023/12/01 05:30:50;;;;;;;;;;;;;;;;;;5085472;28;20014;-76
2023/12/01 05:33:16;;;;;;;;;;;;;;;;;;5084123;28;20000;-76
2023/12/01 05:35:45;;;;;;;;;;;;;;;;;;5085592;28;19916;-76
2023/12/01 05:38:11;;;;;;;;;;;;;;;;;;5092181;28;19908;-76
2023/12/01 05:40:36;;;;;;;;;;;;;;;;;;5093805;28;19908;-76
2023/12/01 05:43:01;;;;;;;;;;;;;;;;;;5077672;28;19916;-76
2023/12/01 05:45:26;;;;;;;;;;;;;;;;;;5081344;28;20002;-76
2023/12/01 05:47:54;;;;;;;;;;;;;;;;;;5085061;28;19947;-76
2023/12/01 05:50:20;;;;;;;;;;;;;;;;;;5084711;28;19908;-76
2023/12/01 05:52:45;;;;;;;;;;;;;;;;;;5085648;28;20444;-76
2023/12/01 05:55:14;;;;;;;;;;;;;;;;;;5093396;28;19908;-76
2023/12/01 05:57:39;;;;;;;;;;;;;;;;;;5092991;28;20344;-76
2023/12/01 06:00:04;;;;;;;;;;;;;;;;;;5093319;28;20342;-77
2023/12/01 06:02:30;;;;;;;;;;;;;;;;;;5091235;28;19995;-77
2023/12/01 06:04:57;;;;;;;;;;;;;;;;;;5085586;28;19908;-77
2023/12/01 06:07:22;;;;;;;;;;;;;;;;;;5089863;28;20431;-76
2023/12/01 06:09:47;;;;;;;;;;;;;;;;;;5084492;28;19908;-76
2023/12/01 06:12:12;;;;;;;;;;;;;;;;;;5083931;28;19909;-77
2023/12/01 06:14:38;;;;;;;;;;;;;;;;;;5092440;28;19943;-76
2023/12/01 06:17:04;;;;;;;;;;;;;;;;;;5084624;28;20463;-76
2023/12/01 06:19:29;;;;;;;;;;;;;;;;;;5072892;28;19916;-76
2023/12/01 06:21:57;;;;;;;;;;;;;;;;;;5078041;28;19912;-77
2023/12/01 06:24:23;;;;;;;;;;;;;;;;;;5084455;28;20286;-76
2023/12/01 06:26:48;;;;;;;;;;;;;;;;;;5083152;28;20577;-76
2023/12/01 06:29:13;;;;;;;;;;;;;;;;;;5076257;28;20378;-76
2023/12/01 06:31:38;;;;;;;;;;;;;;;;;;5087991;28;20369;-76
2023/12/01 06:34:03;;;;;;;;;;;;;;;;;;5072472;28;19908;-76
2023/12/01 06:36:29;;;;;;;;;;;;;;;;;;5080768;28;19912;-76
2023/12/01 06:38:54;;;;;;;;;;;;;;;;;;5079553;28;19947;-76
2023/12/01 06:41:19;;;;;;;;;;;;;;;;;;5081294;28;19908;-76
2023/12/01 06:43:47;;;;;;;;;;;;;;;;;;5087090;28;20750;-76
2023/12/01 06:46:12;;;;;;;;;;;;;;;;;;5087096;28;20399;-76
2023/12/01 06:48:37;;;;;;;;;;;;;;;;;;5081163;28;20351;-76
2023/12/01 06:51:03;;;;;;;;;;;;;;;;;;5079449;28;19908;-77
2023/12/01 06:53:28;;;;;;;;;;;;;;;;;;5082321;28;19961;-77
2023/12/01 06:55:53;;;;;;;;;;;;;;;;;;5091280;28;19908;-76
2023/12/01 06:58:18;;;;;;;;;;;;;;;;;;5083858;28;19912;-76
2023/12/01 07:00:43;;;;;;;;;;;;;;;;;;5091232;28;20300;-76
2023/12/01 07:03:08;;;;;;;;;;;;;;;;;;5083871;28;19908;-76
2023/12/01 07:05:34;;;;;;;;;;;;;;;;;;5089912;28;19911;-75
2023/12/01 07:07:59;;;;;;;;;;;;;;;;;;5092428;28;20361;-75
2023/12/01 07:10:24;;;;;;;;;;;;;;;;;;5091271;28;20280;-76
2023/12/01 07:12:49;;;;;;;;;;;;;;;;;;5083983;28;20344;-76
2023/12/01 07:15:14;;;;;;;;;;;;;;;;;;5075879;28;19915;-76
2023/12/01 07:17:39;;;;;;;;;;;;;;;;;;5092759;28;19908;-75
2023/12/01 07:20:12;;;;;;;;;;;;;;;;;;5096420;28;19915;-75
2023/12/01 07:22:37;;;;;;;;;;;;;;;;;;5095020;28;19915;-75
2023/12/01 07:25:02;;;;;;;;;;;;;;;;;;5094789;28;19995;-75
2023/12/01 07:27:27;;;;;;;;;;;;;;;;;;5095975;28;19972;-76
2023/12/01 07:29:53;;;;;;;;;;;;;;;;;;5096216;28;19951;-75
2023/12/01 07:32:18;;;;;;;;;;;;;;;;;;5096370;28;19978;-75
2023/12/01 07:34:43;;;;;;;;;;;;;;;;;;5096032;28;20007;-75
2023/12/01 07:37:10;;;;;;;;;;;;;;;;;;5095869;28;19958;-76
2023/12/01 07:39:35;;;;;;;;;;;;;;;;;;5096071;28;20296;-75
2023/12/01 07:42:01;;;;;;;;;;;;;;;;;;5095925;28;20003;-75
2023/12/01 07:44:28;;;;;;;;;;;;;;;;;;5094357;28;19916;-75
2023/12/01 07:46:53;;;;;;;;;;;;;;;;;;5095801;28;19934;-75
2023/12/01 07:49:18;;;;;;;;;;;;;;;;;;5094361;28;20428;-76
2023/12/01 07:51:43;;;;;;;;;;;;;;;;;;5094544;28;19947;-74
2023/12/01 07:54:08;;;;;;;;;;;;;;;;;;5094344;28;19939;-76
2023/12/01 07:56:33;;;;;;;;;;;;;;;;;;5091008;28;19950;-75
2023/12/01 07:58:58;;;;;;;;;;;;;;;;;;5086987;28;20340;-75
2023/12/01 08:01:23;;;;;;;;;;;;;;;;;;5095390;28;20428;-75
2023/12/01 08:03:49;;;;;;;;;;;;;;;;;;5095309;28;20369;-75
2023/12/01 08:06:14;;;;;;;;;;;;;;;;;;5095052;28;20078;-76
2023/12/01 08:08:39;;;;;;;;;;;;;;;;;;5095257;28;19909;-75
2023/12/01 08:11:04;;;;;;;;;;;;;;;;;;5095183;28;20048;-75
2023/12/01 08:13:29;;;;;;;;;;;;;;;;;;5090190;28;19999;-76
2023/12/01 08:15:54;;;;;;;;;;;;;;;;;;5095281;28;19958;-76
2023/12/01 08:18:19;;;;;;;;;;;;;;;;;;5093647;28;19915;-76
2023/12/01 08:20:45;;;;;;;;;;;;;;;;;;5095082;28;20273;-76
2023/12/01 08:23:10;;;;;;;;;;;;;;;;;;5095005;28;20008;-76
2023/12/01 08:25:35;;;;;;;;;;;;;;;;;;5094449;28;19912;-76
2023/12/01 08:28:00;;;;;;;;;;;;;;;;;;5094794;28;19965;-76
2023/12/01 08:30:25;;;;;;;;;;;;;;;;;;5094076;28;19953;-76
2023/12/01 08:32:51;;;;;;;;;;;;;;;;;;5094848;28;20289;-76
2023/12/01 08:35:16;;;;;;;;;;;;;;;;;;5094811;28;19908;-76
2023/12/01 08:37:41;;;;;;;;;;;;;;;;;;5094669;28;19908;-76
2023/12/01 08:40:11;;;;;;;;;;;;;;;;;;5094770;28;20422;-76
2023/12/01 08:42:36;;;;;;;;;;;;;;;;;;5094758;28;19923;-75
2023/12/01 08:45:02;;;;;;;;;;;;;;;;;;5094420;28;19916;-76
2023/12/01 08:47:27;;;;;;;;;;;;;;;;;;5094371;28;20277;-76
2023/12/01 08:49:54;;;;;;;;;;;;;;;;;;5093406;28;19908;-76
2023/12/01 08:52:19;;;;;;;;;;;;;;;;;;5094404;28;20007;-76
2023/12/01 08:54:44;;;;;;;;;;;;;;;;;;5094306;28;19985;-76
2023/12/01 08:57:09;;;;;;;;;;;;;;;;;;5094006;28;20002;-76
2023/12/01 08:59:34;;;;;;;;;;;;;;;;;;5082532;28;20360;-76
2023/12/01 09:01:59;;;;;;;;;;;;;;;;;;5079433;28;19914;-76
2023/12/01 09:04:24;;;;;;;;;;;;;;;;;;5086796;28;19913;-76
2023/12/01 09:06:50;;;;;;;;;;;;;;;;;;5085255;28;19923;-77
2023/12/01 09:09:15;;;;;;;;;;;;;;;;;;5091627;28;19909;-77
2023/12/01 09:11:40;;;;;;;;;;;;;;;;;;5082863;28;19912;-75
2023/12/01 09:14:05;;;;;;;;;;;;;;;;;;5086294;28;19912;-76
2023/12/01 09:16:30;;;;;;;;;;;;;;;;;;5092614;28;20280;-76
2023/12/01 09:18:55;;;;;;;;;;;;;;;;;;5093843;28;19931;-76
2023/12/01 09:21:20;;;;;;;;;;;;;;;;;;5092697;28;20288;-75
2023/12/01 09:23:45;;;;;;;;;;;;;;;;;;5092370;28;19908;-76
2023/12/01 09:26:12;;;;;;;;;;;;;;;;;;5093678;28;19934;-76
2023/12/01 09:28:37;;;;;;;;;;;;;;;;;;5093572;28;19908;-75
2023/12/01 09:31:02;;;;;;;;;;;;;;;;;;5092318;28;19915;-76
2023/12/01 09:33:28;;;;;;;;;;;;;;;;;;5089753;28;20384;-77
2023/12/01 09:35:53;;;;;;;;;;;;;;;;;;5086801;28;19919;-75
2023/12/01 09:38:18;;;;;;;;;;;;;;;;;;5093316;28;19908;-75
2023/12/01 09:40:43;;;;;;;;;;;;;;;;;;5085690;28;19958;-76
2023/12/01 09:43:08;;;;;;;;;;;;;;;;;;5093441;28;19961;-75
2023/12/01 09:45:33;;;;;;;;;;;;;;;;;;5085954;28;19920;-75
2023/12/01 09:47:59;;;;;;;;;;;;;;;;;;5093280;28;19908;-75
2023/12/01 09:50:24;;;;;;;;;;;;;;;;;;5085094;28;20437;-76
2023/12/01 09:52:49;;;;;;;;;;;;;;;;;;5093522;28;19908;-76
2023/12/01 09:55:14;;;;;;;;;;;;;;;;;;5086419;28;19955;-76
2023/12/01 09:57:39;;;;;;;;;;;;;;;;;;5093023;28;19915;-76
2023/12/01 10:00:10;;;;;;;;;;;;;;;;;;5093244;28;19912;-75
2023/12/01 10:02:35;;;;;;;;;;;;;;;;;;5093223;28;20045;-76
2023/12/01 10:05:01;;;;;;;;;;;;;;;;;;5093008;28;19953;-75
2023/12/01 10:07:26;;;;;;;;;;;;;;;;;;5092571;28;19998;-76
2023/12/01 10:09:51;;;;;;;;;;;;;;;;;;5088164;28;19990;-76
2023/12/01 10:12:17;;;;;;;;;;;;;;;;;;5089640;28;19908;-76
2023/12/01 10:14:42;;;;;;;;;;;;;;;;;;5091688;28;19915;-76
2023/12/01 10:17:07;;;;;;;;;;;;;;;;;;5091812;28;19977;-76
2023/12/01 10:19:33;;;;;;;;;;;;;;;;;;5091341;28;20320;-75
2023/12/01 10:21:58;;;;;;;;;;;;;;;;;;5092716;28;20350;-76
2023/12/01 10:24:23;;;;;;;;;;;;;;;;;;5084147;28;19912;-76
2023/12/01 10:26:49;;;;;;;;;;;;;;;;;;5088399;28;19970;-76
2023/12/01 10:29:14;;;;;;;;;;;;;;;;;;5088935;28;19915;-76
2023/12/01 10:31:39;;;;;;;;;;;;;;;;;;5091300;28;19909;-76
2023/12/01 10:34:04;;;;;;;;;;;;;;;;;;5092627;28;19962;-75
2023/12/01 10:36:31;;;;;;;;;;;;;;;;;;5091297;28;19931;-75
2023/12/01 10:38:56;;;;;;;;;;;;;;;;;;5091118;28;20388;-76
2023/12/01 10:41:22;;;;;;;;;;;;;;;;;;5092335;28;20337;-75
2023/12/01 10:43:48;;;;;;;;;;;;;;;;;;5092362;28;19912;-75
2023/12/01 10:46:13;;;;;;;;;;;;;;;;;;5091160;28;19923;-75
2023/12/01 10:48:38;;;;;;;;;;;;;;;;;;5091076;28;19912;-75
2023/12/01 10:51:03;;;;;;;;;;;;;;;;;;5084536;28;19927;-75
2023/12/01 10:53:28;;;;;;;;;;;;;;;;;;5091722;28;20323;-75
2023/12/01 10:55:54;;;;;;;;;;;;;;;;;;5091102;28;20010;-76
2023/12/01 10:58:20;;;;;;;;;;;;;;;;;;5090888;28;19959;-75
2023/12/01 11:00:45;;;;;;;;;;;;;;;;;;5091850;28;20288;-75
2023/12/01 11:03:10;;;;;;;;;;;;;;;;;;5092308;28;19908;-76
2023/12/01 11:05:36;;;;;;;;;;;;;;;;;;5091576;28;20353;-77
2023/12/01 11:08:01;;;;;;;;;;;;;;;;;;5083622;28;19916;-75
2023/12/01 11:10:26;;;;;;;;;;;;;;;;;;5091821;28;19919;-76
2023/12/01 11:12:51;;;;;;;;;;;;;;;;;;5090869;28;20372;-75
2023/12/01 11:15:16;;;;;;;;;;;;;;;;;;5091001;28;19908;-75
2023/12/01 11:17:41;;;;;;;;;;;;;;;;;;5091993;28;19908;-77
2023/12/01 11:20:06;;;;;;;;;;;;;;;;;;5092029;28;19962;-75
2023/12/01 11:22:37;;;;;;;;;;;;;;;;;;5083495;28;19912;-75
2023/12/01 11:25:02;;;;;;;;;;;;;;;;;;5090097;28;19923;-75
2023/12/01 11:27:28;;;;;;;;;;;;;;;;;;5075635;22;19924;-78
2023/12/01 11:29:53;;;;;;;;;;;;;;;;;;5052326;28;19915;-77
2023/12/01 11:32:18;;;;;;;;;;;;;;;;;;5033980;28;20000;-77
2023/12/01 11:34:43;;;;;;;;;;;;;;;;;;5027706;28;19931;-77
2023/12/01 11:37:08;;;;;;;;;;;;;;;;;;5032180;28;19955;-77
2023/12/01 11:39:34;;;;;;;;;;;;;;;;;;5032164;28;20310;-77
2023/12/01 11:42:02;;;;;;;;;;;;;;;;;;5032058;28;19955;-77
2023/12/01 11:44:29;;;;;;;;;;;;;;;;;;5013896;28;19948;-78
2023/12/01 11:46:57;;;;;;;;;;;;;;;;;;5031802;28;19917;-77
2023/12/01 11:49:22;;;;;;;;;;;;;;;;;;5032489;28;20161;-77
2023/12/01 11:51:49;;;;;;;;;;;;;;;;;;5032297;28;19909;-77
2023/12/01 11:54:14;;;;;;;;;;;;;;;;;;5014481;28;19952;-77
2023/12/01 11:56:39;;;;;;;;;;;;;;;;;;5031781;28;19967;-76
2023/12/01 11:59:08;;;;;;;;;;;;;;;;;;5031353;28;19958;-76
2023/12/01 12:01:33;;;;;;;;;;;;;;;;;;5014285;28;19963;-77
2023/12/01 12:03:58;;;;;;;;;;;;;;;;;;5031974;28;20341;-76
2023/12/01 12:06:23;;;;;;;;;;;;;;;;;;5035218;28;19981;-76
2023/12/01 12:08:50;;;;;;;;;;;;;;;;;;5017345;28;19924;-77
2023/12/01 12:11:15;;;;;;;;;;;;;;;;;;5017901;28;19917;-77
2023/12/01 12:13:41;;;;;;;;;;;;;;;;;;5017000;28;19909;-76
2023/12/01 12:16:06;;;;;;;;;;;;;;;;;;5035424;28;19909;-77
2023/12/01 12:18:31;;;;;;;;;;;;;;;;;;5034743;28;19909;-77
2023/12/01 12:20:56;;;;;;;;;;;;;;;;;;5035722;28;19909;-78
2023/12/01 12:23:21;;;;;;;;;;;;;;;;;;5018061;28;19909;-78
2023/12/01 12:25:47;;;;;;;;;;;;;;;;;;5035545;28;19919;-77
2023/12/01 12:28:13;;;;;;;;;;;;;;;;;;5016967;28;20375;-77
2023/12/01 12:30:38;;;;;;;;;;;;;;;;;;5035163;28;20344;-77
2023/12/01 12:33:03;;;;;;;;;;;;;;;;;;5035435;28;19910;-77
2023/12/01 12:35:28;;;;;;;;;;;;;;;;;;5035056;28;19913;-76
2023/12/01 12:37:53;;;;;;;;;;;;;;;;;;5035478;28;19963;-77
2023/12/01 12:40:18;;;;;;;;;;;;;;;;;;5035147;28;19914;-77
2023/12/01 12:42:44;;;;;;;;;;;;;;;;;;5010596;28;19936;-77
2023/12/01 12:45:09;;;;;;;;;;;;;;;;;;5033183;28;19916;-78
2023/12/01 12:47:35;;;;;;;;;;;;;;;;;;5034390;28;19909;-77
2023/12/01 12:50:00;;;;;;;;;;;;;;;;;;5035334;28;19916;-80
2023/12/01 12:52:25;;;;;;;;;;;;;;;;;;5035991;28;19909;-78
2023/12/01 12:54:50;;;;;;;;;;;;;;;;;;5035885;28;19917;-78
2023/12/01 12:57:15;;;;;;;;;;;;;;;;;;5017692;28;19913;-78
2023/12/01 12:59:40;;;;;;;;;;;;;;;;;;5035490;28;19932;-78
2023/12/01 13:02:06;;;;;;;;;;;;;;;;;;5034104;28;20387;-80
2023/12/01 13:04:31;;;;;;;;;;;;;;;;;;5035242;28;19909;-78
2023/12/01 13:06:56;;;;;;;;;;;;;;;;;;5018010;28;20300;-77
2023/12/01 13:09:22;;;;;;;;;;;;;;;;;;5034573;28;19909;-80
2023/12/01 13:11:47;;;;;;;;;;;;;;;;;;5036025;28;19956;-80
2023/12/01 13:14:13;;;;;;;;;;;;;;;;;;5036370;28;19919;-80
2023/12/01 13:16:38;;;;;;;;;;;;;;;;;;5035259;28;19920;-79
2023/12/01 13:19:03;;;;;;;;;;;;;;;;;;5035366;28;19998;-79
2023/12/01 13:21:28;;;;;;;;;;;;;;;;;;5035282;28;19913;-79
2023/12/01 13:23:53;;;;;;;;;;;;;;;;;;5017264;28;19979;-77
2023/12/01 13:26:18;;;;;;;;;;;;;;;;;;5034387;28;19917;-79
2023/12/01 13:28:44;;;;;;;;;;;;;;;;;;5017295;28;19909;-78
2023/12/01 13:31:09;;;;;;;;;;;;;;;;;;5015266;28;19927;-80
2023/12/01 13:33:34;;;;;;;;;;;;;;;;;;5031479;28;19915;-77
2023/12/01 13:35:59;;;;;;;;;;;;;;;;;;5028951;28;19910;-80
2023/12/01 13:38:25;;;;;;;;;;;;;;;;;;5033468;28;19910;-78
2023/12/01 13:40:50;;;;;;;;;;;;;;;;;;5017569;28;19944;-80
2023/12/01 13:43:15;;;;;;;;;;;;;;;;;;5034748;28;19917;-79
2023/12/01 13:45:40;;;;;;;;;;;;;;;;;;5034070;28;20023;-77
2023/12/01 13:48:05;;;;;;;;;;;;;;;;;;5033633;28;20004;-78
2023/12/01 13:50:30;;;;;;;;;;;;;;;;;;5033823;28;19916;-79
2023/12/01 13:52:55;;;;;;;;;;;;;;;;;;5034432;28;19913;-79
2023/12/01 13:55:21;;;;;;;;;;;;;;;;;;5017518;28;19909;-79
2023/12/01 13:57:46;;;;;;;;;;;;;;;;;;5033390;28;19909;-78
2023/12/01 14:00:12;;;;;;;;;;;;;;;;;;5032766;28;20016;-78
2023/12/01 14:02:37;;;;;;;;;;;;;;;;;;5032843;28;19909;-77
2023/12/01 14:05:02;;;;;;;;;;;;;;;;;;5016319;28;19932;-78
2023/12/01 14:07:27;;;;;;;;;;;;;;;;;;5033739;28;20376;-78
2023/12/01 14:09:52;;;;;;;;;;;;;;;;;;5033670;28;19916;-78
2023/12/01 14:12:17;;;;;;;;;;;;;;;;;;5034356;28;19909;-77
2023/12/01 14:14:43;;;;;;;;;;;;;;;;;;5033628;28;19909;-77
2023/12/01 14:17:09;;;;;;;;;;;;;;;;;;5016140;28;19928;-77
2023/12/01 14:19:34;;;;;;;;;;;;;;;;;;5015289;28;19909;-78
2023/12/01 14:21:59;;;;;;;;;;;;;;;;;;5032002;28;19913;-78
2023/12/01 14:24:24;;;;;;;;;;;;;;;;;;5016551;28;20372;-78
2023/12/01 14:26:49;;;;;;;;;;;;;;;;;;5025634;28;19924;-77
2023/12/01 14:29:14;;;;;;;;;;;;;;;;;;5030160;28;19909;-77
2023/12/01 14:31:39;;;;;;;;;;;;;;;;;;5035815;28;19920;-78
2023/12/01 14:34:04;;;;;;;;;;;;;;;;;;5037400;28;20284;-77
2023/12/01 14:36:30;;;;;;;;;;;;;;;;;;5040096;28;20360;-77
2023/12/01 14:38:55;;;;;;;;;;;;;;;;;;5016430;28;19909;-78
2023/12/01 14:41:20;;;;;;;;;;;;;;;;;;5033739;28;19916;-78
2023/12/01 14:43:45;;;;;;;;;;;;;;;;;;5016104;28;19916;-78
2023/12/01 14:46:10;;;;;;;;;;;;;;;;;;5033222;28;19920;-78
2023/12/01 14:48:37;;;;;;;;;;;;;;;;;;5015116;28;20680;-78
2023/12/01 14:51:02;;;;;;;;;;;;;;;;;;5033003;28;20007;-78
2023/12/01 14:53:28;;;;;;;;;;;;;;;;;;5013770;28;19968;-78
2023/12/01 14:55:53;;;;;;;;;;;;;;;;;;5031264;28;19909;-77
2023/12/01 14:58:18;;;;;;;;;;;;;;;;;;5030308;28;19963;-77
2023/12/01 15:00:43;;;;;;;;;;;;;;;;;;5032210;28;19913;-78
2023/12/01 15:03:09;;;;;;;;;;;;;;;;;;5033913;28;19940;-78
2023/12/01 15:05:34;;;;;;;;;;;;;;;;;;5032974;28;19920;-78
2023/12/01 15:07:59;;;;;;;;;;;;;;;;;;5032777;28;19929;-78
2023/12/01 15:10:24;;;;;;;;;;;;;;;;;;5032814;28;19920;-78
2023/12/01 15:12:49;;;;;;;;;;;;;;;;;;5033652;28;19920;-77
2023/12/01 15:15:14;;;;;;;;;;;;;;;;;;5014490;28;19953;-79
2023/12/01 15:17:39;;;;;;;;;;;;;;;;;;5014733;28;20004;-77
2023/12/01 15:20:05;;;;;;;;;;;;;;;;;;5032678;28;19931;-78
2023/12/01 15:22:30;;;;;;;;;;;;;;;;;;5033088;28;20380;-77
2023/12/01 15:24:55;;;;;;;;;;;;;;;;;;5032431;28;20461;-78
2023/12/01 15:27:21;;;;;;;;;;;;;;;;;;5015252;28;20003;-78
2023/12/01 15:29:46;;;;;;;;;;;;;;;;;;5015637;28;19960;-78
2023/12/01 15:32:11;;;;;;;;;;;;;;;;;;5033029;28;19909;-77
2023/12/01 15:34:36;;;;;;;;;;;;;;;;;;5032539;28;19932;-78
2023/12/01 15:37:01;;;;;;;;;;;;;;;;;;5033083;28;20008;-77
2023/12/01 15:39:26;;;;;;;;;;;;;;;;;;5026637;28;19916;-78
2023/12/01 15:41:52;;;;;;;;;;;;;;;;;;5034047;28;19916;-78
2023/12/01 15:44:17;;;;;;;;;;;;;;;;;;5040918;28;19917;-78
2023/12/01 15:46:42;;;;;;;;;;;;;;;;;;5019588;28;19913;-78
2023/12/01 15:49:08;;;;;;;;;;;;;;;;;;5035668;28;20368;-78
2023/12/01 15:51:34;;;;;;;;;;;;;;;;;;5036710;28;20023;-78
2023/12/01 15:53:59;;;;;;;;;;;;;;;;;;5019771;28;20378;-78
2023/12/01 15:56:24;;;;;;;;;;;;;;;;;;5038240;28;20300;-77
2023/12/01 15:58:50;;;;;;;;;;;;;;;;;;5038060;28;19913;-78
2023/12/01 16:01:15;;;;;;;;;;;;;;;;;;5038172;28;19915;-78
2023/12/01 16:03:41;;;;;;;;;;;;;;;;;;5038320;28;19910;-78
2023/12/01 16:06:06;;;;;;;;;;;;;;;;;;5019602;28;19913;-78
2023/12/01 16:08:31;;;;;;;;;;;;;;;;;;5037573;28;19910;-78
2023/12/01 16:10:56;;;;;;;;;;;;;;;;;;5020060;28;19916;-78
2023/12/01 16:13:21;;;;;;;;;;;;;;;;;;5037329;28;19936;-78
2023/12/01 16:15:46;;;;;;;;;;;;;;;;;;5018896;28;19909;-78
2023/12/01 16:18:12;;;;;;;;;;;;;;;;;;5036247;28;20296;-78
2023/12/01 16:20:37;;;;;;;;;;;;;;;;;;5018418;28;19963;-78
2023/12/01 16:23:02;;;;;;;;;;;;;;;;;;5036164;28;19916;-78
2023/12/01 16:25:27;;;;;;;;;;;;;;;;;;5035674;28;19956;-78
2023/12/01 16:27:53;;;;;;;;;;;;;;;;;;5035418;28;20008;-78
2023/12/01 16:30:18;;;;;;;;;;;;;;;;;;5017830;28;19909;-78
2023/12/01 16:32:43;;;;;;;;;;;;;;;;;;5018197;28;19959;-78